createdAt,value
2023-03-18T17:11:10.239Z,100730.33
2023-03-18T17:13:44.805Z,100733.04
2023-03-18T17:16:19.016Z,100731.81
2023-03-18T17:18:47.165Z,100731.16
2023-03-18T17:21:18.514Z,100731.34
2023-03-18T17:23:47.937Z,100731.95
2023-03-18T17:26:16.414Z,100733.66
2023-03-18T17:28:48.398Z,100736.81
2023-03-18T17:31:17.123Z,100735.30
2023-03-18T17:33:51.185Z,100737.15
2023-03-18T17:36:20.655Z,100737.81
2023-03-18T17:38:48.980Z,100739.10
2023-03-18T17:41:21.345Z,100740.92
2023-03-18T17:43:54.954Z,100741.11
2023-03-18T17:46:23.307Z,100738.23
2023-03-18T17:48:51.798Z,100747.30
2023-03-18T17:51:24.705Z,100747.26
2023-03-18T17:53:56.885Z,100746.17
2023-03-18T17:56:25.985Z,100752.26
2023-03-18T17:58:56.696Z,100751.23
2023-03-18T18:01:30.205Z,100748.71
2023-03-18T18:03:59.140Z,100749.29
2023-03-18T18:06:30.742Z,100746.55
2023-03-18T18:09:00.491Z,100750.78
2023-03-18T18:11:35.776Z,100751.08
2023-03-18T18:14:25.785Z,100749.05
2023-03-18T18:16:54.186Z,100750.48
2023-03-18T18:19:24.322Z,100749.64
2023-03-18T18:21:53.465Z,100753.41
2023-03-18T18:24:29.078Z,100752.95
2023-03-18T18:26:57.394Z,100758.11
2023-03-18T18:29:28.318Z,100758.56
2023-03-18T18:31:58.048Z,100758.08
2023-03-18T18:34:26.806Z,100761.71
2023-03-18T18:36:54.802Z,100758.73
2023-03-18T18:39:22.997Z,100759.18
2023-03-18T18:42:10.182Z,100755.32
2023-03-18T18:44:39.004Z,100755.16
2023-03-18T18:47:19.611Z,100758.42
2023-03-18T18:49:52.011Z,100758.27
2023-03-18T18:52:20.225Z,100759.05
2023-03-18T18:54:48.468Z,100760.48
2023-03-18T18:57:29.451Z,100761.69
2023-03-18T18:59:59.280Z,100759.23
2023-03-18T19:02:33.924Z,100759.49
2023-03-18T19:05:04.777Z,100760.10
2023-03-18T19:07:33.818Z,100758.32
2023-03-18T19:10:01.879Z,100763.20
2023-03-18T19:12:30.394Z,100765.73
2023-03-18T19:14:59.829Z,100765.48
2023-03-18T19:17:28.380Z,100766.15
2023-03-18T19:19:56.880Z,100770.73
2023-03-18T19:22:26.280Z,100770.53
2023-03-18T19:24:54.917Z,100774.67
2023-03-18T19:27:30.330Z,100774.39
2023-03-18T19:30:00.157Z,100773.54
2023-03-18T19:32:28.204Z,100775.13
2023-03-18T19:34:59.432Z,100773.66
2023-03-18T19:37:32.427Z,100774.46
2023-03-18T19:40:01.813Z,100772.85
2023-03-18T19:42:30.571Z,100777.32
2023-03-18T19:44:58.726Z,100774.24
2023-03-18T19:47:31.766Z,100774.80
2023-03-18T19:50:01.801Z,100772.16
2023-03-18T19:52:33.354Z,100769.11
2023-03-18T19:55:08.255Z,100767.11
2023-03-18T19:57:37.537Z,100767.16
2023-03-18T20:00:30.295Z,100767.33
2023-03-18T20:02:58.675Z,100762.25
2023-03-18T20:05:27.771Z,100764.81
2023-03-18T20:07:56.747Z,100760.05
2023-03-18T20:10:25.124Z,100757.61
2023-03-18T20:12:57.643Z,100755.90
2023-03-18T20:15:28.948Z,100753.77
2023-03-18T20:18:01.051Z,100755.96
2023-03-18T20:20:32.176Z,100752.35
2023-03-18T20:23:02.281Z,100747.66
2023-03-18T20:25:32.951Z,100745.16
2023-03-18T20:28:04.799Z,100748.80
2023-03-18T20:30:37.771Z,100746.07
2023-03-18T20:33:07.472Z,100743.85
2023-03-18T20:35:39.337Z,100740.26
2023-03-18T20:38:10.533Z,100745.20
2023-03-18T20:40:41.151Z,100743.90
2023-03-18T20:43:19.280Z,100739.64
2023-03-18T20:45:51.771Z,100741.86
2023-03-18T20:48:21.114Z,100742.80
2023-03-18T20:50:51.899Z,100742.05
2023-03-18T20:53:22.616Z,100738.02
2023-03-18T20:55:51.136Z,100735.48
2023-03-18T20:58:22.247Z,100737.11
2023-03-18T21:00:52.328Z,100735.80
2023-03-18T21:03:29.648Z,100733.64
2023-03-18T21:05:59.048Z,100733.20
2023-03-18T21:08:28.440Z,100735.58
2023-03-18T21:11:03.355Z,100729.52
2023-03-18T21:13:38.004Z,100729.36
2023-03-18T21:16:09.961Z,100729.64
2023-03-18T21:18:45.517Z,100729.65
2023-03-18T21:21:18.085Z,100727.34
2023-03-18T21:23:49.376Z,100728.42
2023-03-18T21:26:19.351Z,100727.52
2023-03-18T21:28:48.469Z,100730.34
2023-03-18T21:31:26.290Z,100730.92
2023-03-18T21:33:55.414Z,100728.81
2023-03-18T21:36:26.480Z,100728.55
2023-03-18T21:38:55.467Z,100730.20
2023-03-18T21:41:28.204Z,100734.23
2023-03-18T21:43:56.429Z,100731.54
2023-03-18T21:46:27.090Z,100734.56
2023-03-18T21:48:55.997Z,100736.53
2023-03-18T21:51:38.731Z,100739.95
2023-03-18T21:54:20.583Z,100737.95
2023-03-18T21:56:51.752Z,100738.84
2023-03-18T21:59:23.080Z,100738.33
2023-03-18T22:01:53.236Z,100732.98
2023-03-18T22:04:22.268Z,100733.49
2023-03-18T22:06:51.038Z,100734.21
2023-03-18T22:09:19.100Z,100736.11
2023-03-18T22:11:47.120Z,100734.84
2023-03-18T22:14:22.352Z,100735.64
2023-03-18T22:16:50.400Z,100737.32
2023-03-18T22:19:18.739Z,100732.92
2023-03-18T22:21:46.969Z,100731.64
2023-03-18T22:24:15.764Z,100731.77
2023-03-18T22:26:43.931Z,100731.16
2023-03-18T22:29:12.631Z,100729.75
2023-03-18T22:31:43.790Z,100727.41
2023-03-18T22:34:22.665Z,100726.28
2023-03-18T22:36:50.699Z,100731.10
2023-03-18T22:39:18.796Z,100731.95
2023-03-18T22:41:50.946Z,100724.33
2023-03-18T22:44:22.759Z,100722.14
2023-03-18T22:46:51.034Z,100720.45
2023-03-18T22:49:19.114Z,100724.92
2023-03-18T22:51:48.031Z,100725.68
2023-03-18T22:54:19.136Z,100723.37
2023-03-18T22:56:47.130Z,100721.73
2023-03-18T22:59:15.360Z,100726.08
2023-03-18T23:01:43.982Z,100724.23
2023-03-18T23:04:12.344Z,100720.59
2023-03-18T23:06:44.252Z,100715.05
2023-03-18T23:09:13.886Z,100716.09
2023-03-18T23:11:41.918Z,100712.44
2023-03-18T23:14:11.075Z,100711.80
2023-03-18T23:16:41.414Z,100708.38
2023-03-18T23:19:09.586Z,100705.92
2023-03-18T23:21:37.852Z,100703.97
2023-03-18T23:24:07.247Z,100704.52
2023-03-18T23:26:36.801Z,100697.05
2023-03-18T23:29:06.153Z,100696.66
2023-03-18T23:31:34.403Z,100698.31
2023-03-18T23:34:03.712Z,100689.30
2023-03-18T23:36:32.711Z,100690.14
2023-03-18T23:39:01.392Z,100687.48
2023-03-18T23:41:30.816Z,100682.30
2023-03-18T23:44:03.264Z,100680.96
2023-03-18T23:46:32.752Z,100676.52
2023-03-18T23:49:00.831Z,100676.02
2023-03-18T23:51:29.133Z,100677.73
2023-03-18T23:53:57.185Z,100674.70
2023-03-18T23:56:26.316Z,100669.20
2023-03-18T23:58:54.974Z,100666.54
